Decoded Metar for LFPT (PONTOISE in FRANCE) (IATA:POX) | Meteo·Mobile Aviation Weather
aviador You're here:

LFPT Decoded Metar

PONTOISE in FRANCE
Report Time2019-07-16 22:00:00
UTC Time2019-07-16 22:19:32
Flight Rules vfr VFR
Wind060° at 07 kt
W.Decomp.*RWY 05: 6.9 kt HW 1.3 kt RCW
RWY 12: 3.6 kt HW 6 kt LCW
Visibility9999 m
Phenomena:N/A
Clouds:N/A
Expected CloudBase > 2,800 ft AGL from Temp-Dew spread
CeilingNone
Temp16°C (ISA +2)
Dew Point09°C (63% RH)
AAT13.3°C
QNH1017 hPa
Density Alt541 ft
Elevation325 ft
Report Wrong Elevation
Raw Report
METAR LFPT 162200Z AUTO 06007KT CAVOK 16/09 Q1017=

Extra information for LFPT:More info

Metar Taf Metar & Taf Last 4 Metars F.Rules Stats Wind Profile Meteogram Temp Stats Airport Information Weather charts Add Link Nearby VenuesMetar ALERT Operation Metar Decoded Social comments